Sand Lake, South Dakota
Current Conditions -  °F | °C
As of 2:53 PM on Saturday 22 Nov 2014 (Local Time) from KABR Reporting Station
Clear Clear  
Wind Chill: 30°   Ceiling: Unl
Heat Index: 38°   Visibility: 10mi
Dew Point: 31°   Wind: 13mph
Humidity: 76%   Direction: 170°S
Pressure: 29.4"   Gusts: NA
Location:  45.6832°N, 98.2967°W
Report Text: KABR 222053Z AUTO 17011KT 10SM CLR 03/M01 A2940 RMK AO2 SLP969 T00331006 56045
Loading
Personal Weather Stations






























Interactive Weather Map New forecast layout! Learn more

10-Day Weather Forecast

Advertisements
Track Severe Weather on mobile